sensor_id;sensor_type;location;lat;lon;timestamp;P1;durP1;ratioP1;P2;durP2;ratioP2
21352;SDS011;10834;52.268;6.770;2024-03-23T00:55:07;30.73;;;8.33;;
21352;SDS011;10834;52.268;6.770;2024-03-23T00:57:51;27.87;;;9.00;;
21352;SDS011;10834;52.268;6.770;2024-03-23T01:00:35;24.83;;;8.23;;
21352;SDS011;10834;52.268;6.770;2024-03-23T01:03:20;28.23;;;10.13;;
21352;SDS011;10834;52.268;6.770;2024-03-23T01:06:04;31.80;;;8.77;;
21352;SDS011;10834;52.268;6.770;2024-03-23T01:08:48;22.40;;;7.40;;
21352;SDS011;10834;52.268;6.770;2024-03-23T01:11:32;23.23;;;8.63;;
21352;SDS011;10834;52.268;6.770;2024-03-23T01:14:16;20.17;;;7.60;;
21352;SDS011;10834;52.268;6.770;2024-03-23T01:17:00;25.97;;;7.67;;
21352;SDS011;10834;52.268;6.770;2024-03-23T01:19:45;24.10;;;8.37;;
21352;SDS011;10834;52.268;6.770;2024-03-23T01:22:29;31.90;;;8.67;;
21352;SDS011;10834;52.268;6.770;2024-03-23T01:25:14;23.80;;;8.13;;
21352;SDS011;10834;52.268;6.770;2024-03-23T01:27:58;22.90;;;6.97;;
21352;SDS011;10834;52.268;6.770;2024-03-23T01:30:42;21.50;;;6.97;;
21352;SDS011;10834;52.268;6.770;2024-03-23T01:33:26;30.30;;;7.50;;
21352;SDS011;10834;52.268;6.770;2024-03-23T01:36:10;25.57;;;7.27;;
21352;SDS011;10834;52.268;6.770;2024-03-23T01:38:54;31.53;;;8.00;;
21352;SDS011;10834;52.268;6.770;2024-03-23T01:41:38;34.80;;;7.93;;
21352;SDS011;10834;52.268;6.770;2024-03-23T01:44:25;29.77;;;7.13;;
21352;SDS011;10834;52.268;6.770;2024-03-23T01:47:09;25.77;;;7.30;;
21352;SDS011;10834;52.268;6.770;2024-03-23T01:49:53;19.13;;;7.07;;
21352;SDS011;10834;52.268;6.770;2024-03-23T01:52:38;25.17;;;7.87;;
21352;SDS011;10834;52.268;6.770;2024-03-23T01:55:23;23.17;;;5.77;;
21352;SDS011;10834;52.268;6.770;2024-03-23T01:58:07;32.80;;;8.10;;
21352;SDS011;10834;52.268;6.770;2024-03-23T02:00:51;22.67;;;5.80;;
21352;SDS011;10834;52.268;6.770;2024-03-23T02:03:35;23.00;;;5.83;;
21352;SDS011;10834;52.268;6.770;2024-03-23T02:06:19;21.33;;;6.70;;
21352;SDS011;10834;52.268;6.770;2024-03-23T02:09:04;24.50;;;7.40;;
21352;SDS011;10834;52.268;6.770;2024-03-23T02:11:49;23.13;;;6.20;;
21352;SDS011;10834;52.268;6.770;2024-03-23T02:14:33;23.70;;;6.20;;
21352;SDS011;10834;52.268;6.770;2024-03-23T02:17:17;19.90;;;7.03;;
21352;SDS011;10834;52.268;6.770;2024-03-23T02:20:02;16.93;;;6.63;;
21352;SDS011;10834;52.268;6.770;2024-03-23T02:22:51;29.20;;;7.70;;
21352;SDS011;10834;52.268;6.770;2024-03-23T02:25:36;24.03;;;6.90;;
21352;SDS011;10834;52.268;6.770;2024-03-23T02:28:21;31.47;;;7.60;;
21352;SDS011;10834;52.268;6.770;2024-03-23T02:31:06;19.20;;;7.13;;
21352;SDS011;10834;52.268;6.770;2024-03-23T02:33:50;26.53;;;7.70;;
21352;SDS011;10834;52.268;6.770;2024-03-23T02:36:34;26.70;;;7.07;;
21352;SDS011;10834;52.268;6.770;2024-03-23T02:39:18;22.43;;;7.10;;
21352;SDS011;10834;52.268;6.770;2024-03-23T02:42:02;33.43;;;7.90;;
21352;SDS011;10834;52.268;6.770;2024-03-23T02:44:47;22.80;;;7.00;;
21352;SDS011;10834;52.268;6.770;2024-03-23T02:47:31;26.50;;;7.77;;
21352;SDS011;10834;52.268;6.770;2024-03-23T02:50:15;17.97;;;7.00;;
21352;SDS011;10834;52.268;6.770;2024-03-23T02:52:59;24.73;;;7.50;;
21352;SDS011;10834;52.268;6.770;2024-03-23T02:55:43;25.93;;;7.07;;
21352;SDS011;10834;52.268;6.770;2024-03-23T02:58:27;29.67;;;7.77;;
21352;SDS011;10834;52.268;6.770;2024-03-23T03:01:11;27.00;;;7.53;;
21352;SDS011;10834;52.268;6.770;2024-03-23T03:03:55;23.57;;;7.53;;
21352;SDS011;10834;52.268;6.770;2024-03-23T03:06:39;25.17;;;6.83;;
21352;SDS011;10834;52.268;6.770;2024-03-23T03:09:24;24.40;;;8.00;;
21352;SDS011;10834;52.268;6.770;2024-03-23T03:12:09;28.73;;;8.03;;
21352;SDS011;10834;52.268;6.770;2024-03-23T03:14:53;33.40;;;9.63;;
21352;SDS011;10834;52.268;6.770;2024-03-23T03:17:37;29.83;;;10.03;;
21352;SDS011;10834;52.268;6.770;2024-03-23T03:20:22;28.03;;;9.13;;
21352;SDS011;10834;52.268;6.770;2024-03-23T03:23:07;27.67;;;10.87;;
21352;SDS011;10834;52.268;6.770;2024-03-23T03:25:51;21.50;;;9.67;;
21352;SDS011;10834;52.268;6.770;2024-03-23T03:28:35;27.53;;;9.03;;
21352;SDS011;10834;52.268;6.770;2024-03-23T03:31:20;37.77;;;10.20;;
21352;SDS011;10834;52.268;6.770;2024-03-23T03:34:04;26.10;;;10.83;;
21352;SDS011;10834;52.268;6.770;2024-03-23T03:36:48;38.53;;;10.43;;
21352;SDS011;10834;52.268;6.770;2024-03-23T03:39:32;27.37;;;10.67;;
21352;SDS011;10834;52.268;6.770;2024-03-23T03:42:16;35.40;;;10.67;;
21352;SDS011;10834;52.268;6.770;2024-03-23T03:45:00;37.13;;;10.73;;
21352;SDS011;10834;52.268;6.770;2024-03-23T03:47:44;31.50;;;10.20;;
21352;SDS011;10834;52.268;6.770;2024-03-23T03:50:28;33.77;;;9.97;;
21352;SDS011;10834;52.268;6.770;2024-03-23T03:53:12;23.37;;;9.90;;
21352;SDS011;10834;52.268;6.770;2024-03-23T03:56:00;31.10;;;11.63;;
21352;SDS011;10834;52.268;6.770;2024-03-23T03:58:45;31.43;;;10.80;;
21352;SDS011;10834;52.268;6.770;2024-03-23T04:01:29;32.80;;;12.13;;
21352;SDS011;10834;52.268;6.770;2024-03-23T04:04:13;37.90;;;11.23;;
21352;SDS011;10834;52.268;6.770;2024-03-23T04:07:00;36.67;;;12.70;;
21352;SDS011;10834;52.268;6.770;2024-03-23T04:09:45;30.60;;;11.47;;
21352;SDS011;10834;52.268;6.770;2024-03-23T04:12:29;43.07;;;12.70;;
21352;SDS011;10834;52.268;6.770;2024-03-23T04:15:13;31.87;;;11.87;;
21352;SDS011;10834;52.268;6.770;2024-03-23T04:17:58;34.77;;;13.60;;
21352;SDS011;10834;52.268;6.770;2024-03-23T04:20:42;34.93;;;11.83;;
21352;SDS011;10834;52.268;6.770;2024-03-23T04:23:26;33.13;;;13.30;;
21352;SDS011;10834;52.268;6.770;2024-03-23T04:26:10;40.10;;;12.40;;
21352;SDS011;10834;52.268;6.770;2024-03-23T04:28:54;28.97;;;11.83;;
21352;SDS011;10834;52.268;6.770;2024-03-23T04:31:39;35.57;;;12.83;;
21352;SDS011;10834;52.268;6.770;2024-03-23T04:34:23;33.20;;;12.87;;
21352;SDS011;10834;52.268;6.770;2024-03-23T04:37:07;35.67;;;14.13;;
21352;SDS011;10834;52.268;6.770;2024-03-23T04:39:51;41.33;;;12.83;;
21352;SDS011;10834;52.268;6.770;2024-03-23T04:42:36;34.60;;;14.67;;
21352;SDS011;10834;52.268;6.770;2024-03-23T04:45:21;34.40;;;14.00;;
21352;SDS011;10834;52.268;6.770;2024-03-23T04:48:05;42.43;;;14.67;;
21352;SDS011;10834;52.268;6.770;2024-03-23T04:50:49;39.10;;;13.50;;
21352;SDS011;10834;52.268;6.770;2024-03-23T04:53:38;29.80;;;14.20;;
21352;SDS011;10834;52.268;6.770;2024-03-23T04:56:22;33.93;;;15.07;;
21352;SDS011;10834;52.268;6.770;2024-03-23T04:59:06;38.67;;;16.20;;
21352;SDS011;10834;52.268;6.770;2024-03-23T05:01:51;33.87;;;15.53;;
21352;SDS011;10834;52.268;6.770;2024-03-23T05:04:35;42.10;;;15.80;;
21352;SDS011;10834;52.268;6.770;2024-03-23T05:07:21;40.43;;;16.83;;
21352;SDS011;10834;52.268;6.770;2024-03-23T05:10:05;32.03;;;15.23;;
21352;SDS011;10834;52.268;6.770;2024-03-23T05:12:54;35.77;;;15.87;;
21352;SDS011;10834;52.268;6.770;2024-03-23T05:15:38;30.37;;;16.20;;
21352;SDS011;10834;52.268;6.770;2024-03-23T05:18:22;39.23;;;15.83;;
21352;SDS011;10834;52.268;6.770;2024-03-23T05:21:10;39.50;;;15.57;;
21352;SDS011;10834;52.268;6.770;2024-03-23T05:23:54;42.43;;;17.33;;
21352;SDS011;10834;52.268;6.770;2024-03-23T05:26:39;35.63;;;15.27;;
21352;SDS011;10834;52.268;6.770;2024-03-23T05:29:23;35.03;;;16.20;;
21352;SDS011;10834;52.268;6.770;2024-03-23T05:32:07;41.13;;;16.20;;
21352;SDS011;10834;52.268;6.770;2024-03-23T05:34:52;40.17;;;14.97;;
21352;SDS011;10834;52.268;6.770;2024-03-23T05:37:39;39.77;;;16.20;;
21352;SDS011;10834;52.268;6.770;2024-03-23T05:40:24;45.43;;;15.53;;
21352;SDS011;10834;52.268;6.770;2024-03-23T05:43:09;31.30;;;16.63;;
21352;SDS011;10834;52.268;6.770;2024-03-23T05:45:54;34.87;;;16.23;;
21352;SDS011;10834;52.268;6.770;2024-03-23T05:48:42;41.60;;;16.73;;
21352;SDS011;10834;52.268;6.770;2024-03-23T05:51:26;40.30;;;18.40;;
21352;SDS011;10834;52.268;6.770;2024-03-23T05:54:10;38.77;;;16.43;;
21352;SDS011;10834;52.268;6.770;2024-03-23T05:56:54;37.23;;;17.23;;
21352;SDS011;10834;52.268;6.770;2024-03-23T05:59:39;45.07;;;16.53;;
21352;SDS011;10834;52.268;6.770;2024-03-23T06:02:23;34.77;;;16.83;;
21352;SDS011;10834;52.268;6.770;2024-03-23T06:05:08;36.27;;;17.30;;
21352;SDS011;10834;52.268;6.770;2024-03-23T06:07:52;33.70;;;16.27;;
21352;SDS011;10834;52.268;6.770;2024-03-23T06:10:36;36.50;;;16.37;;
21352;SDS011;10834;52.268;6.770;2024-03-23T06:13:20;31.70;;;15.90;;
21352;SDS011;10834;52.268;6.770;2024-03-23T06:16:08;35.10;;;16.97;;
21352;SDS011;10834;52.268;6.770;2024-03-23T06:18:52;30.53;;;14.77;;
21352;SDS011;10834;52.268;6.770;2024-03-23T06:21:36;32.60;;;14.87;;
21352;SDS011;10834;52.268;6.770;2024-03-23T06:24:24;30.40;;;13.60;;
21352;SDS011;10834;52.268;6.770;2024-03-23T06:27:08;31.53;;;12.87;;
21352;SDS011;10834;52.268;6.770;2024-03-23T06:29:52;25.67;;;13.57;;
21352;SDS011;10834;52.268;6.770;2024-03-23T06:32:36;31.57;;;14.37;;
21352;SDS011;10834;52.268;6.770;2024-03-23T06:35:20;35.57;;;13.30;;
21352;SDS011;10834;52.268;6.770;2024-03-23T06:38:04;29.43;;;12.07;;
21352;SDS011;10834;52.268;6.770;2024-03-23T06:40:48;30.77;;;11.90;;
21352;SDS011;10834;52.268;6.770;2024-03-23T06:43:34;20.47;;;10.90;;
21352;SDS011;10834;52.268;6.770;2024-03-23T06:46:18;21.43;;;10.17;;
21352;SDS011;10834;52.268;6.770;2024-03-23T06:49:02;21.73;;;9.63;;
21352;SDS011;10834;52.268;6.770;2024-03-23T06:51:46;24.80;;;8.43;;
21352;SDS011;10834;52.268;6.770;2024-03-23T06:54:30;19.63;;;9.57;;
21352;SDS011;10834;52.268;6.770;2024-03-23T06:57:14;18.87;;;8.03;;
21352;SDS011;10834;52.268;6.770;2024-03-23T06:59:58;23.60;;;9.20;;
21352;SDS011;10834;52.268;6.770;2024-03-23T07:02:43;18.50;;;8.47;;
21352;SDS011;10834;52.268;6.770;2024-03-23T07:05:28;22.07;;;7.97;;
21352;SDS011;10834;52.268;6.770;2024-03-23T07:08:12;22.67;;;8.53;;
21352;SDS011;10834;52.268;6.770;2024-03-23T07:10:56;19.07;;;8.20;;
21352;SDS011;10834;52.268;6.770;2024-03-23T07:13:41;16.83;;;8.10;;
21352;SDS011;10834;52.268;6.770;2024-03-23T07:16:26;16.37;;;6.53;;
21352;SDS011;10834;52.268;6.770;2024-03-23T07:19:10;12.83;;;5.80;;
21352;SDS011;10834;52.268;6.770;2024-03-23T07:21:54;12.23;;;5.00;;
21352;SDS011;10834;52.268;6.770;2024-03-23T07:24:39;14.67;;;5.40;;
21352;SDS011;10834;52.268;6.770;2024-03-23T07:27:24;14.40;;;4.87;;
21352;SDS011;10834;52.268;6.770;2024-03-23T07:30:10;8.17;;;4.57;;
21352;SDS011;10834;52.268;6.770;2024-03-23T07:32:55;11.23;;;3.77;;
21352;SDS011;10834;52.268;6.770;2024-03-23T07:35:39;7.73;;;2.57;;
21352;SDS011;10834;52.268;6.770;2024-03-23T07:38:23;4.83;;;2.00;;
21352;SDS011;10834;52.268;6.770;2024-03-23T07:41:11;4.03;;;1.87;;
21352;SDS011;10834;52.268;6.770;2024-03-23T07:44:02;4.33;;;2.07;;
21352;SDS011;10834;52.268;6.770;2024-03-23T07:46:46;6.77;;;2.87;;
21352;SDS011;10834;52.268;6.770;2024-03-23T07:49:30;6.07;;;3.50;;
21352;SDS011;10834;52.268;6.770;2024-03-23T07:52:15;10.03;;;3.57;;
21352;SDS011;10834;52.268;6.770;2024-03-23T07:54:59;7.93;;;3.07;;
21352;SDS011;10834;52.268;6.770;2024-03-23T07:57:43;6.90;;;3.80;;
21352;SDS011;10834;52.268;6.770;2024-03-23T08:00:27;4.73;;;2.10;;
21352;SDS011;10834;52.268;6.770;2024-03-23T08:03:11;10.03;;;2.70;;
21352;SDS011;10834;52.268;6.770;2024-03-23T08:05:56;8.13;;;2.73;;
21352;SDS011;10834;52.268;6.770;2024-03-23T08:08:40;7.50;;;2.90;;
21352;SDS011;10834;52.268;6.770;2024-03-23T08:11:29;6.47;;;2.67;;
21352;SDS011;10834;52.268;6.770;2024-03-23T08:14:15;12.53;;;2.90;;
21352;SDS011;10834;52.268;6.770;2024-03-23T08:16:59;11.53;;;3.50;;
21352;SDS011;10834;52.268;6.770;2024-03-23T08:19:43;10.33;;;3.63;;
21352;SDS011;10834;52.268;6.770;2024-03-23T08:22:27;13.33;;;3.43;;
21352;SDS011;10834;52.268;6.770;2024-03-23T08:25:11;9.00;;;3.20;;
21352;SDS011;10834;52.268;6.770;2024-03-23T08:27:55;10.95;;;3.20;;
21352;SDS011;10834;52.268;6.770;2024-03-23T08:30:40;9.05;;;3.55;;
21352;SDS011;10834;52.268;6.770;2024-03-23T08:33:24;8.60;;;3.08;;
21352;SDS011;10834;52.268;6.770;2024-03-23T08:36:08;9.40;;;3.03;;
21352;SDS011;10834;52.268;6.770;2024-03-23T08:38:55;9.35;;;3.15;;
21352;SDS011;10834;52.268;6.770;2024-03-23T08:41:39;12.15;;;3.35;;
21352;SDS011;10834;52.268;6.770;2024-03-23T08:44:26;11.75;;;3.17;;
21352;SDS011;10834;52.268;6.770;2024-03-23T08:47:10;14.38;;;2.80;;
21352;SDS011;10834;52.268;6.770;2024-03-23T08:49:54;8.27;;;2.72;;
21352;SDS011;10834;52.268;6.770;2024-03-23T08:52:39;13.50;;;3.63;;
21352;SDS011;10834;52.268;6.770;2024-03-23T08:55:23;10.15;;;3.47;;
21352;SDS011;10834;52.268;6.770;2024-03-23T08:58:07;6.88;;;2.42;;
21352;SDS011;10834;52.268;6.770;2024-03-23T09:00:52;6.87;;;2.50;;
21352;SDS011;10834;52.268;6.770;2024-03-23T09:03:41;5.80;;;2.10;;
21352;SDS011;10834;52.268;6.770;2024-03-23T09:06:25;5.00;;;2.17;;
21352;SDS011;10834;52.268;6.770;2024-03-23T09:09:09;8.50;;;2.50;;
21352;SDS011;10834;52.268;6.770;2024-03-23T09:11:53;5.97;;;2.70;;
21352;SDS011;10834;52.268;6.770;2024-03-23T09:14:37;9.25;;;2.63;;
21352;SDS011;10834;52.268;6.770;2024-03-23T09:17:21;6.88;;;2.35;;
21352;SDS011;10834;52.268;6.770;2024-03-23T09:20:05;9.38;;;2.33;;
21352;SDS011;10834;52.268;6.770;2024-03-23T09:22:50;7.95;;;2.70;;
21352;SDS011;10834;52.268;6.770;2024-03-23T09:25:37;7.93;;;2.50;;
21352;SDS011;10834;52.268;6.770;2024-03-23T09:28:22;6.32;;;2.17;;
21352;SDS011;10834;52.268;6.770;2024-03-23T09:31:07;5.97;;;2.58;;
21352;SDS011;10834;52.268;6.770;2024-03-23T09:33:52;7.32;;;2.55;;
21352;SDS011;10834;52.268;6.770;2024-03-23T09:36:36;7.50;;;2.80;;
21352;SDS011;10834;52.268;6.770;2024-03-23T09:39:20;5.97;;;2.40;;
21352;SDS011;10834;52.268;6.770;2024-03-23T09:42:04;7.55;;;2.78;;
21352;SDS011;10834;52.268;6.770;2024-03-23T09:44:50;6.40;;;2.65;;
21352;SDS011;10834;52.268;6.770;2024-03-23T09:47:35;7.72;;;2.22;;
21352;SDS011;10834;52.268;6.770;2024-03-23T09:50:19;4.82;;;2.13;;
21352;SDS011;10834;52.268;6.770;2024-03-23T09:53:04;8.13;;;2.70;;
21352;SDS011;10834;52.268;6.770;2024-03-23T09:55:50;5.70;;;2.03;;
21352;SDS011;10834;52.268;6.770;2024-03-23T09:58:34;5.68;;;2.13;;
21352;SDS011;10834;52.268;6.770;2024-03-23T10:01:18;6.57;;;2.30;;
21352;SDS011;10834;52.268;6.770;2024-03-23T10:04:02;5.65;;;2.13;;
21352;SDS011;10834;52.268;6.770;2024-03-23T10:06:47;8.57;;;1.80;;
21352;SDS011;10834;52.268;6.770;2024-03-23T10:09:31;7.15;;;1.90;;
21352;SDS011;10834;52.268;6.770;2024-03-23T10:12:16;4.97;;;2.42;;
21352;SDS011;10834;52.268;6.770;2024-03-23T10:15:01;6.30;;;1.98;;
21352;SDS011;10834;52.268;6.770;2024-03-23T10:17:58;6.93;;;1.60;;
21352;SDS011;10834;52.268;6.770;2024-03-23T10:23:52;6.13;;;1.63;;
21352;SDS011;10834;52.268;6.770;2024-03-23T10:26:36;5.43;;;3.03;;
21352;SDS011;10834;52.268;6.770;2024-03-23T10:29:20;8.70;;;1.80;;
21352;SDS011;10834;52.268;6.770;2024-03-23T10:32:11;6.47;;;1.97;;
21352;SDS011;10834;52.268;6.770;2024-03-23T10:34:56;4.10;;;1.43;;
21352;SDS011;10834;52.268;6.770;2024-03-23T10:38:07;2.83;;;1.20;;
21352;SDS011;10834;52.268;6.770;2024-03-23T10:40:52;4.15;;;1.63;;
21352;SDS011;10834;52.268;6.770;2024-03-23T10:43:38;3.57;;;1.63;;
21352;SDS011;10834;52.268;6.770;2024-03-23T10:46:22;5.27;;;2.70;;
21352;SDS011;10834;52.268;6.770;2024-03-23T10:49:06;4.67;;;1.83;;
21352;SDS011;10834;52.268;6.770;2024-03-23T10:51:51;7.63;;;1.37;;
21352;SDS011;10834;52.268;6.770;2024-03-23T10:54:36;3.40;;;1.30;;
21352;SDS011;10834;52.268;6.770;2024-03-23T10:57:23;5.87;;;1.40;;
21352;SDS011;10834;52.268;6.770;2024-03-23T11:00:19;8.67;;;1.50;;
21352;SDS011;10834;52.268;6.770;2024-03-23T11:06:37;3.53;;;1.00;;
21352;SDS011;10834;52.268;6.770;2024-03-23T11:15:10;3.30;;;1.00;;
21352;SDS011;10834;52.268;6.770;2024-03-23T11:18:02;7.53;;;1.20;;
21352;SDS011;10834;52.268;6.770;2024-03-23T11:20:52;6.07;;;1.60;;
21352;SDS011;10834;52.268;6.770;2024-03-23T11:23:36;5.00;;;1.33;;
21352;SDS011;10834;52.268;6.770;2024-03-23T11:26:21;4.23;;;1.40;;
21352;SDS011;10834;52.268;6.770;2024-03-23T11:29:09;4.73;;;1.17;;
21352;SDS011;10834;52.268;6.770;2024-03-23T11:31:53;3.93;;;1.07;;
21352;SDS011;10834;52.268;6.770;2024-03-23T11:34:37;1.70;;;0.87;;
21352;SDS011;10834;52.268;6.770;2024-03-23T11:37:22;5.33;;;0.93;;
21352;SDS011;10834;52.268;6.770;2024-03-23T11:40:19;3.03;;;1.00;;
21352;SDS011;10834;52.268;6.770;2024-03-23T11:43:04;3.63;;;1.03;;
21352;SDS011;10834;52.268;6.770;2024-03-23T11:45:50;3.23;;;1.40;;
21352;SDS011;10834;52.268;6.770;2024-03-23T11:48:36;2.57;;;1.10;;
21352;SDS011;10834;52.268;6.770;2024-03-23T11:51:20;3.50;;;1.00;;
21352;SDS011;10834;52.268;6.770;2024-03-23T11:54:08;9.23;;;1.97;;
21352;SDS011;10834;52.268;6.770;2024-03-23T11:56:56;3.97;;;1.10;;
21352;SDS011;10834;52.268;6.770;2024-03-23T11:59:46;1.43;;;1.07;;
21352;SDS011;10834;52.268;6.770;2024-03-23T12:02:30;3.57;;;1.07;;
21352;SDS011;10834;52.268;6.770;2024-03-23T12:05:15;6.70;;;1.30;;
21352;SDS011;10834;52.268;6.770;2024-03-23T12:08:15;3.30;;;1.10;;
21352;SDS011;10834;52.268;6.770;2024-03-23T12:11:15;4.87;;;1.40;;
21352;SDS011;10834;52.268;6.770;2024-03-23T12:14:00;4.73;;;1.50;;
21352;SDS011;10834;52.268;6.770;2024-03-23T12:16:44;5.53;;;1.80;;
21352;SDS011;10834;52.268;6.770;2024-03-23T12:19:28;5.53;;;1.63;;
21352;SDS011;10834;52.268;6.770;2024-03-23T12:22:12;5.60;;;1.93;;
21352;SDS011;10834;52.268;6.770;2024-03-23T12:24:56;9.00;;;1.80;;
21352;SDS011;10834;52.268;6.770;2024-03-23T12:27:41;3.23;;;1.03;;
21352;SDS011;10834;52.268;6.770;2024-03-23T12:30:26;4.93;;;1.93;;
21352;SDS011;10834;52.268;6.770;2024-03-23T12:33:10;4.90;;;1.87;;
21352;SDS011;10834;52.268;6.770;2024-03-23T12:35:55;7.07;;;1.30;;
21352;SDS011;10834;52.268;6.770;2024-03-23T12:38:39;8.27;;;1.27;;
21352;SDS011;10834;52.268;6.770;2024-03-23T12:41:22;5.27;;;1.80;;
21352;SDS011;10834;52.268;6.770;2024-03-23T12:44:07;4.13;;;1.40;;
21352;SDS011;10834;52.268;6.770;2024-03-23T12:46:53;4.73;;;2.47;;
21352;SDS011;10834;52.268;6.770;2024-03-23T12:49:37;3.50;;;1.10;;
21352;SDS011;10834;52.268;6.770;2024-03-23T12:52:21;4.03;;;1.10;;
21352;SDS011;10834;52.268;6.770;2024-03-23T12:55:07;6.90;;;1.63;;
21352;SDS011;10834;52.268;6.770;2024-03-23T12:57:52;4.47;;;1.00;;
21352;SDS011;10834;52.268;6.770;2024-03-23T13:00:36;5.33;;;1.70;;
21352;SDS011;10834;52.268;6.770;2024-03-23T13:03:20;4.37;;;1.63;;
21352;SDS011;10834;52.268;6.770;2024-03-23T13:06:05;3.93;;;1.50;;
21352;SDS011;10834;52.268;6.770;2024-03-23T13:08:51;18.27;;;2.50;;
21352;SDS011;10834;52.268;6.770;2024-03-23T13:11:38;7.57;;;2.53;;
21352;SDS011;10834;52.268;6.770;2024-03-23T13:14:22;9.67;;;1.40;;
21352;SDS011;10834;52.268;6.770;2024-03-23T13:17:07;11.60;;;2.13;;
21352;SDS011;10834;52.268;6.770;2024-03-23T13:19:52;11.13;;;2.43;;
21352;SDS011;10834;52.268;6.770;2024-03-23T13:22:37;3.90;;;1.57;;
21352;SDS011;10834;52.268;6.770;2024-03-23T13:25:21;6.10;;;1.53;;
21352;SDS011;10834;52.268;6.770;2024-03-23T13:28:05;8.27;;;1.97;;
21352;SDS011;10834;52.268;6.770;2024-03-23T13:30:50;6.93;;;1.57;;
21352;SDS011;10834;52.268;6.770;2024-03-23T13:33:38;3.73;;;1.47;;
21352;SDS011;10834;52.268;6.770;2024-03-23T13:36:23;5.43;;;1.30;;
21352;SDS011;10834;52.268;6.770;2024-03-23T13:39:07;5.40;;;1.77;;
21352;SDS011;10834;52.268;6.770;2024-03-23T13:41:54;4.30;;;0.90;;
21352;SDS011;10834;52.268;6.770;2024-03-23T13:44:42;4.50;;;1.17;;
21352;SDS011;10834;52.268;6.770;2024-03-23T13:47:26;5.20;;;1.47;;
21352;SDS011;10834;52.268;6.770;2024-03-23T13:50:11;7.17;;;1.33;;
21352;SDS011;10834;52.268;6.770;2024-03-23T13:52:56;3.47;;;1.20;;
21352;SDS011;10834;52.268;6.770;2024-03-23T13:55:46;7.77;;;1.60;;
21352;SDS011;10834;52.268;6.770;2024-03-23T13:58:34;4.83;;;1.13;;
21352;SDS011;10834;52.268;6.770;2024-03-23T14:01:18;3.80;;;1.27;;
21352;SDS011;10834;52.268;6.770;2024-03-23T14:04:02;5.50;;;1.30;;
21352;SDS011;10834;52.268;6.770;2024-03-23T14:06:46;2.70;;;0.80;;
21352;SDS011;10834;52.268;6.770;2024-03-23T14:09:30;2.30;;;1.13;;
21352;SDS011;10834;52.268;6.770;2024-03-23T14:12:16;4.20;;;1.10;;
21352;SDS011;10834;52.268;6.770;2024-03-23T14:15:00;4.17;;;1.13;;
21352;SDS011;10834;52.268;6.770;2024-03-23T14:17:46;3.60;;;1.30;;
21352;SDS011;10834;52.268;6.770;2024-03-23T14:20:30;2.80;;;1.20;;
21352;SDS011;10834;52.268;6.770;2024-03-23T14:23:15;5.50;;;1.40;;
21352;SDS011;10834;52.268;6.770;2024-03-23T14:25:59;4.10;;;1.30;;
21352;SDS011;10834;52.268;6.770;2024-03-23T14:28:43;7.13;;;1.80;;
21352;SDS011;10834;52.268;6.770;2024-03-23T14:31:27;4.87;;;1.27;;
21352;SDS011;10834;52.268;6.770;2024-03-23T14:34:12;4.87;;;1.20;;
21352;SDS011;10834;52.268;6.770;2024-03-23T14:36:56;8.93;;;2.07;;
21352;SDS011;10834;52.268;6.770;2024-03-23T14:39:40;5.23;;;0.93;;
21352;SDS011;10834;52.268;6.770;2024-03-23T14:42:25;6.97;;;1.37;;
21352;SDS011;10834;52.268;6.770;2024-03-23T14:45:09;4.73;;;0.90;;
21352;SDS011;10834;52.268;6.770;2024-03-23T14:47:55;2.73;;;1.20;;
21352;SDS011;10834;52.268;6.770;2024-03-23T14:50:41;5.10;;;1.40;;
21352;SDS011;10834;52.268;6.770;2024-03-23T14:53:26;6.30;;;0.90;;
21352;SDS011;10834;52.268;6.770;2024-03-23T14:56:13;5.20;;;1.13;;
21352;SDS011;10834;52.268;6.770;2024-03-23T14:58:59;3.07;;;1.30;;
21352;SDS011;10834;52.268;6.770;2024-03-23T15:01:43;4.67;;;1.30;;
21352;SDS011;10834;52.268;6.770;2024-03-23T15:04:27;5.80;;;1.50;;
21352;SDS011;10834;52.268;6.770;2024-03-23T15:07:11;8.10;;;1.37;;
21352;SDS011;10834;52.268;6.770;2024-03-23T15:09:55;6.50;;;1.83;;
21352;SDS011;10834;52.268;6.770;2024-03-23T15:12:39;4.83;;;1.67;;
21352;SDS011;10834;52.268;6.770;2024-03-23T15:15:23;8.50;;;1.97;;
21352;SDS011;10834;52.268;6.770;2024-03-23T15:18:07;5.47;;;1.43;;
21352;SDS011;10834;52.268;6.770;2024-03-23T15:20:52;5.33;;;1.47;;
21352;SDS011;10834;52.268;6.770;2024-03-23T15:23:37;6.30;;;1.20;;
21352;SDS011;10834;52.268;6.770;2024-03-23T15:26:21;4.47;;;1.30;;
21352;SDS011;10834;52.268;6.770;2024-03-23T15:29:06;6.97;;;1.40;;
21352;SDS011;10834;52.268;6.770;2024-03-23T15:32:00;6.60;;;1.33;;
21352;SDS011;10834;52.268;6.770;2024-03-23T15:34:45;4.47;;;1.57;;
21352;SDS011;10834;52.268;6.770;2024-03-23T15:37:31;1.33;;;0.50;;
21352;SDS011;10834;52.268;6.770;2024-03-23T15:40:14;1.17;;;0.40;;
21352;SDS011;10834;52.268;6.770;2024-03-23T15:42:59;2.73;;;0.70;;
21352;SDS011;10834;52.268;6.770;2024-03-23T15:45:44;2.87;;;0.47;;
21352;SDS011;10834;52.268;6.770;2024-03-23T15:48:28;2.20;;;0.63;;
21352;SDS011;10834;52.268;6.770;2024-03-23T15:51:13;5.43;;;1.07;;
21352;SDS011;10834;52.268;6.770;2024-03-23T15:53:58;10.70;;;1.33;;
21352;SDS011;10834;52.268;6.770;2024-03-23T15:56:43;7.77;;;1.00;;
21352;SDS011;10834;52.268;6.770;2024-03-23T15:59:27;6.57;;;0.93;;
21352;SDS011;10834;52.268;6.770;2024-03-23T16:02:11;4.20;;;0.90;;
21352;SDS011;10834;52.268;6.770;2024-03-23T16:04:56;2.53;;;0.87;;
21352;SDS011;10834;52.268;6.770;2024-03-23T16:07:42;5.47;;;0.97;;
21352;SDS011;10834;52.268;6.770;2024-03-23T16:10:26;3.10;;;1.13;;
21352;SDS011;10834;52.268;6.770;2024-03-23T16:13:10;3.73;;;1.10;;
21352;SDS011;10834;52.268;6.770;2024-03-23T16:16:01;3.47;;;1.30;;
21352;SDS011;10834;52.268;6.770;2024-03-23T16:18:53;10.23;;;1.20;;
21352;SDS011;10834;52.268;6.770;2024-03-23T16:21:37;2.93;;;1.00;;
21352;SDS011;10834;52.268;6.770;2024-03-23T16:24:22;5.43;;;1.33;;
21352;SDS011;10834;52.268;6.770;2024-03-23T16:27:05;9.73;;;3.47;;
21352;SDS011;10834;52.268;6.770;2024-03-23T16:29:49;6.93;;;1.53;;
21352;SDS011;10834;52.268;6.770;2024-03-23T16:32:33;4.03;;;2.43;;
21352;SDS011;10834;52.268;6.770;2024-03-23T16:35:22;2.87;;;1.40;;
21352;SDS011;10834;52.268;6.770;2024-03-23T16:38:06;6.50;;;1.30;;
21352;SDS011;10834;52.268;6.770;2024-03-23T16:40:59;5.03;;;1.60;;
21352;SDS011;10834;52.268;6.770;2024-03-23T16:43:51;7.67;;;1.37;;
21352;SDS011;10834;52.268;6.770;2024-03-23T16:46:35;4.33;;;1.93;;
21352;SDS011;10834;52.268;6.770;2024-03-23T16:49:19;6.73;;;1.60;;
21352;SDS011;10834;52.268;6.770;2024-03-23T16:52:03;6.73;;;2.43;;
21352;SDS011;10834;52.268;6.770;2024-03-23T16:54:48;8.67;;;1.97;;
21352;SDS011;10834;52.268;6.770;2024-03-23T16:57:32;9.27;;;3.43;;
21352;SDS011;10834;52.268;6.770;2024-03-23T17:00:16;9.23;;;2.07;;
21352;SDS011;10834;52.268;6.770;2024-03-23T17:03:01;8.97;;;3.73;;
21352;SDS011;10834;52.268;6.770;2024-03-23T17:05:46;4.63;;;3.03;;
21352;SDS011;10834;52.268;6.770;2024-03-23T17:08:31;7.80;;;3.30;;
21352;SDS011;10834;52.268;6.770;2024-03-23T17:11:16;5.87;;;3.50;;
21352;SDS011;10834;52.268;6.770;2024-03-23T17:14:03;7.57;;;3.40;;
21352;SDS011;10834;52.268;6.770;2024-03-23T17:16:47;8.47;;;2.53;;
21352;SDS011;10834;52.268;6.770;2024-03-23T17:19:32;4.20;;;1.57;;
21352;SDS011;10834;52.268;6.770;2024-03-23T17:22:16;9.20;;;3.40;;
21352;SDS011;10834;52.268;6.770;2024-03-23T17:25:00;10.07;;;2.50;;
21352;SDS011;10834;52.268;6.770;2024-03-23T17:27:44;7.50;;;2.10;;
21352;SDS011;10834;52.268;6.770;2024-03-23T17:30:28;4.77;;;1.90;;